West Bloomfield, Michigan
Current Conditions -  °F | °C
As of 4:35 PM on Friday 31 Oct 2014 (Local Time) from KVLL Reporting Station
Light Rain Light Rain  
Wind Chill: 30°   Ceiling: 1400
Heat Index: 40°   Visibility: 10mi
Dew Point: 36°   Wind: 20mph
Humidity: 85%   Direction: 350°N
Pressure: 29.94"   Gusts: 28mph
Location:  42.54°N, 83.22°W
Report Text: KVLL 312035Z AUTO 35017G24KT 10SM -RA BKN014 OVC019 04/02 A2994 RMK AO2 T00430020
Loading
Personal Weather Stations






























Interactive Weather Map
Tropical Storm Tracking
New forecast layout! Learn more

10-Day Weather Forecast

Advertisements
Track Severe Weather on mobile